Aérodrome :
LOGIN :

S'inscrire | Disclaimer

   EN    FR    IT 

 










Légende :    VFR   VFR Marginal   IFR   IFR Intensif   IFR Très Intensif
Visi : 
Plafond : 
>= 8 km
>= 3000ft
5 à 8 km
1000 à 3000 ft
1500m à 5 km
500 à 1000 ft
800 à 1500m
200 à 500 ft
< 800m
< 200 ft
Symboles :   Orages  Brouillard  Fortes neiges  Fortes précipitations  Vent > 20 kt
SIGMETs :   Divers  Orages  Givrage  Turbulence  Onde Orograph.  Cendres Volcan.







- Altitude de l'aérodrome : 236 ft
- Code IATA : MMX


ESMS - Malmö Sturup

DERNIER METAR :
  • 281020Z 09012KT CAVOK 18/12 Q1007

METARs EXPIRÉS :
  • 280950Z 09011KT CAVOK 16/12 Q1007
  • 280920Z 10011KT CAVOK 16/12 Q1007
  • 280850Z 09009KT CAVOK 15/11 Q1007
  • 280820Z 11007KT CAVOK 14/11 Q1008
  • 280750Z 11008KT CAVOK 13/10 Q1008

TAF TAF ESMS
Valide du 28 à 06h jusqu'au 29 à 06h UTC


280502Z 2806/2906 09008KT CAVOK
BECMG 2813/2816 08022KT
TEMPO 2902/2906 07022G35KT 2000 TSRA BKN010 BKN030CB
Pas de NOTAMs connus pour ce terrain.



MET'MAP, la Météo Aéronautique d'un coup d'oeil ! - Copyright ORBIFLY Décembre 2007 - Disclaimer

ORBIFLY MET'MAP TEAM :

Programmation & Développement : Alexandra Zaïnal
Conception & Développement : Baudouin d'Aumeries
Co-Programmation & Développement : Marc-Olivier Méhu
Soutien technique & logistique : Manuel Goepfert

Contact : metmap@orbifly.com




SOURCES & CREDITS :

   NOAA